Pct Moose — CGCZ — position and weather

sailwx.info

Track history (hours):
 
Tides and Currents Weather Stations Pressure Air Temp Water Temp Dewpoint Dewpoint Depression Visibility Wind Speed Wind Dir Waves Ship Positions

Pct Moose

Last reported at 2016-Jul-21 22:33 UTC. Time now 2016-Jul-24 06:52 UTC.
Position N 48°26' W 123°26'.

Length 33 m; draft 2.6 m.

Type: Military. MMSI: 316013412.

Date/timePositionNaut miles runAvg speedWind from/ knotsBaromVisibWave heightAir tempDewpointWater temp
2016-Jul-21 22:33N 48°26' W 123°26'3 3.2
2016-Jul-21 21:33N 48°23' W 123°26'1 0.7
2016-Jul-21 20:34N 48°23' W 123°27'1 0.9
2016-Jul-21 19:33N 48°23' W 123°27'3 2.8
2016-Jul-21 18:33N 48°26' W 123°26'0 0.0
2016-Jul-20 16:08N 48°26' W 123°26'0 0.0
2016-Jul-20 14:20N 48°26' W 123°26'0 0.0
2016-Jul-20 13:26N 48°26' W 123°26'0 0.0
2016-Jul-20 12:32N 48°26' W 123°26'0 0.0
2016-Jul-20 11:26N 48°26' W 123°26'0 0.0
2016-Jul-20 10:32N 48°26' W 123°26'0 0.0
2016-Jul-20 09:33N 48°26' W 123°26'0 0.0
2016-Jul-20 07:15N 48°26' W 123°26'0 0.0
2016-Jul-20 06:05N 48°26' W 123°26'0 0.0
2016-Jul-20 05:29N 48°26' W 123°26'0 0.0
2016-Jul-20 04:30N 48°26' W 123°26'0 0.0
2016-Jul-20 03:24N 48°26' W 123°26'0 0.0
2016-Jul-20 02:19N 48°26' W 123°26'0 0.0
2016-Jul-20 01:27N 48°26' W 123°26'0 0.0
2016-Jul-20 00:30N 48°26' W 123°26'0 0.0
2016-Jul-19 23:32N 48°26' W 123°26'0 0.0
2016-Jul-19 22:32N 48°26' W 123°26'0 0.0
2016-Jul-19 20:21N 48°26' W 123°26'0 0.0
2016-Jul-19 15:23N 48°26' W 123°26'0 0.0
2016-Jul-19 14:29N 48°26' W 123°26'0 0.0
2016-Jul-19 13:34N 48°26' W 123°26'0 0.0
2016-Jul-19 12:29N 48°26' W 123°26'0 0.0
2016-Jul-19 11:29N 48°26' W 123°26'0 0.0
2016-Jul-19 10:32N 48°26' W 123°26'0 0.0
2016-Jul-19 09:29N 48°26' W 123°26'0 0.0
2016-Jul-19 08:25N 48°26' W 123°26'0 0.0
2016-Jul-19 07:31N 48°26' W 123°26'0 0.0
2016-Jul-19 04:29N 48°26' W 123°26'0 0.0
2016-Jul-19 03:29N 48°26' W 123°26'0 0.0
2016-Jul-19 02:28N 48°26' W 123°26'  
2016-Jul-12 21:08N 48°26' W 123°26'2 3.8
2016-Jul-12 20:33N 48°24' W 123°27'0 0.4
2016-Jul-12 19:33N 48°24' W 123°27'3 2.6
2016-Jul-12 18:30N 48°21' W 123°28'1 1.3
2016-Jul-12 17:33N 48°22' W 123°27'4 3.8
2016-Jul-12 16:33N 48°26' W 123°26'0 0.2
2016-Jul-12 14:25N 48°26' W 123°26'0 0.0
2016-Jul-12 13:05N 48°26' W 123°26'0 0.0
2016-Jul-12 12:29N 48°26' W 123°26'0 0.0
2016-Jul-12 11:26N 48°26' W 123°26'0 0.0
2016-Jul-12 09:26N 48°26' W 123°26'0 0.0
2016-Jul-12 05:28N 48°26' W 123°26'0 0.0
2016-Jul-12 02:26N 48°26' W 123°26'0 0.0
2016-Jul-12 01:11N 48°26' W 123°26'0 0.0
2016-Jul-12 00:27N 48°26' W 123°26'0 0.0
2016-Jul-11 23:15N 48°26' W 123°26'  
Track history (hours):
 
Tides and Currents Weather Stations Pressure Air Temp Water Temp Dewpoint Dewpoint Depression Visibility Wind Speed Wind Dir Waves Ship Positions

Pct Moose

Last reported at 2016-Jul-21 22:33 UTC. Time now 2016-Jul-24 06:52 UTC.
Position N 48°26' W 123°26'.

Length 33 m; draft 2.6 m.

Type: Military. MMSI: 316013412.

Date/timePositionNaut miles runAvg speedWind from/ knotsBaromVisibWave heightAir tempDewpointWater temp
2016-Jul-21 22:33N 48°26' W 123°26'3 3.2
2016-Jul-21 21:33N 48°23' W 123°26'1 0.7
2016-Jul-21 20:34N 48°23' W 123°27'1 0.9
2016-Jul-21 19:33N 48°23' W 123°27'3 2.8
2016-Jul-21 18:33N 48°26' W 123°26'0 0.0
2016-Jul-20 16:08N 48°26' W 123°26'0 0.0
2016-Jul-20 14:20N 48°26' W 123°26'0 0.0
2016-Jul-20 13:26N 48°26' W 123°26'0 0.0
2016-Jul-20 12:32N 48°26' W 123°26'0 0.0
2016-Jul-20 11:26N 48°26' W 123°26'0 0.0
2016-Jul-20 10:32N 48°26' W 123°26'0 0.0
2016-Jul-20 09:33N 48°26' W 123°26'0 0.0
2016-Jul-20 07:15N 48°26' W 123°26'0 0.0
2016-Jul-20 06:05N 48°26' W 123°26'0 0.0
2016-Jul-20 05:29N 48°26' W 123°26'0 0.0
2016-Jul-20 04:30N 48°26' W 123°26'0 0.0
2016-Jul-20 03:24N 48°26' W 123°26'0 0.0
2016-Jul-20 02:19N 48°26' W 123°26'0 0.0
2016-Jul-20 01:27N 48°26' W 123°26'0 0.0
2016-Jul-20 00:30N 48°26' W 123°26'0 0.0
2016-Jul-19 23:32N 48°26' W 123°26'0 0.0
2016-Jul-19 22:32N 48°26' W 123°26'0 0.0
2016-Jul-19 20:21N 48°26' W 123°26'0 0.0
2016-Jul-19 15:23N 48°26' W 123°26'0 0.0
2016-Jul-19 14:29N 48°26' W 123°26'0 0.0
2016-Jul-19 13:34N 48°26' W 123°26'0 0.0
2016-Jul-19 12:29N 48°26' W 123°26'0 0.0
2016-Jul-19 11:29N 48°26' W 123°26'0 0.0
2016-Jul-19 10:32N 48°26' W 123°26'0 0.0
2016-Jul-19 09:29N 48°26' W 123°26'0 0.0
2016-Jul-19 08:25N 48°26' W 123°26'0 0.0
2016-Jul-19 07:31N 48°26' W 123°26'0 0.0
2016-Jul-19 04:29N 48°26' W 123°26'0 0.0
2016-Jul-19 03:29N 48°26' W 123°26'0 0.0
2016-Jul-19 02:28N 48°26' W 123°26'  
2016-Jul-12 21:08N 48°26' W 123°26'2 3.8
2016-Jul-12 20:33N 48°24' W 123°27'0 0.4
2016-Jul-12 19:33N 48°24' W 123°27'3 2.6
2016-Jul-12 18:30N 48°21' W 123°28'1 1.3
2016-Jul-12 17:33N 48°22' W 123°27'4 3.8
2016-Jul-12 16:33N 48°26' W 123°26'0 0.2
2016-Jul-12 14:25N 48°26' W 123°26'0 0.0
2016-Jul-12 13:05N 48°26' W 123°26'0 0.0
2016-Jul-12 12:29N 48°26' W 123°26'0 0.0
2016-Jul-12 11:26N 48°26' W 123°26'0 0.0
2016-Jul-12 09:26N 48°26' W 123°26'0 0.0
2016-Jul-12 05:28N 48°26' W 123°26'0 0.0
2016-Jul-12 02:26N 48°26' W 123°26'0 0.0
2016-Jul-12 01:11N 48°26' W 123°26'0 0.0
2016-Jul-12 00:27N 48°26' W 123°26'0 0.0
2016-Jul-11 23:15N 48°26' W 123°26'  

Dump ship's entire track history